Crystal Mt.
Crystal Mt. Ski Area
Latest observation 08/31 19:00 PDT
| Time (PDT) | Temp °F 6830' | Temp °F 4540' | RH % 6830' | RH % 4540' | Min 6830' | Spd 6830' | Gust 6830' | Dir 6830' | Pcp1 in 4540' | PcpSum in 4540' | 24Sno in 4540' | SnoHt in 4540' |
|---|---|---|---|---|---|---|---|---|---|---|---|---|
| 08/31 19:00 | – | 58 | – | 76 | – | – | – | – | 0.00 | 0.34 | 0.0 | -0.3 |
| 08/31 18:00 | – | 70 | – | 51 | – | – | – | – | 0.00 | 0.34 | -0.2 | -1.4 |
| 08/31 17:00 | – | 73 | – | 33 | – | – | – | – | 0.00 | 0.34 | 0.0 | -0.5 |
| 08/31 16:00 | – | 72 | – | 30 | – | – | – | – | 0.00 | 0.34 | -0.0 | -0.6 |
| 08/31 15:00 | – | 71 | – | 31 | – | – | – | – | 0.00 | 0.34 | 0.0 | -0.1 |
| 08/31 14:00 | – | 70 | – | 34 | – | – | – | – | 0.00 | 0.34 | 0.1 | 0.2 |
| 08/31 13:00 | – | 67 | – | 37 | – | – | – | – | 0.00 | 0.34 | 0.1 | 0.2 |
| 08/31 12:00 | – | 65 | – | 45 | – | – | – | – | 0.00 | 0.34 | 0.1 | -0.1 |
| 08/31 11:00 | – | 62 | – | 58 | – | – | – | – | 0.00 | 0.34 | -0.2 | -0.8 |
| 08/31 10:00 | – | 57 | – | 70 | – | – | – | – | 0.00 | 0.34 | -0.2 | -0.6 |
| 08/31 09:00 | – | 51 | – | 79 | – | – | – | – | 0.00 | 0.34 | -0.1 | -0.3 |
| 08/31 08:00 | – | 47 | – | 85 | – | – | – | – | 0.00 | 0.34 | 0.0 | -0.1 |
| 08/31 07:00 | – | 45 | – | 96 | – | – | – | – | 0.00 | 0.34 | 0.1 | 0.3 |
| 08/31 06:00 | – | 44 | – | 97 | – | – | – | – | 0.00 | 0.34 | 0.1 | 0.1 |
| 08/31 05:00 | – | 44 | – | 97 | – | – | – | – | 0.00 | 0.34 | 0.1 | 0.2 |
| 08/31 04:00 | – | 45 | – | 98 | – | – | – | – | 0.01 | 0.34 | 0.1 | 0.3 |
| 08/31 03:00 | – | 45 | – | 98 | – | – | – | – | 0.00 | 0.33 | 0.1 | 0.2 |
| 08/31 02:00 | – | 44 | – | 98 | – | – | – | – | 0.00 | 0.33 | 0.1 | 0.3 |
| 08/31 01:00 | – | 43 | – | 97 | – | – | – | – | 0.00 | 0.33 | 0.1 | 0.2 |
| 08/31 00:00 | – | 42 | – | 96 | – | – | – | – | 0.00 | 0.33 | 0.1 | 0.2 |
| 08/30 23:00 | – | 42 | – | 96 | – | – | – | – | 0.00 | 0.33 | 0.1 | 0.1 |
| 08/30 22:00 | – | 42 | – | 95 | – | – | – | – | 0.00 | 0.33 | 0.1 | 0.1 |
| 08/30 21:00 | – | 43 | – | 93 | – | – | – | – | 0.00 | 0.33 | 0.1 | 0.1 |
| 08/30 20:00 | – | 45 | – | 91 | – | – | – | – | 0.00 | 0.33 | 0.1 | -0.0 |
| 08/30 19:00 | – | 49 | – | 84 | – | – | – | – | 0.00 | 0.33 | 0.1 | -0.0 |
| 08/30 18:00 | – | 54 | – | 71 | – | – | – | – | 0.00 | 0.33 | 0.1 | 0.3 |
| 08/30 17:00 | – | 56 | – | 66 | – | – | – | – | 0.00 | 0.33 | 0.1 | 0.4 |
| 08/30 16:00 | – | 56 | – | 61 | – | – | – | – | 0.00 | 0.33 | 0.1 | 0.2 |
| 08/30 15:00 | – | 55 | – | 60 | – | – | – | – | 0.00 | 0.33 | 0.1 | 0.3 |
| 08/30 14:00 | – | 54 | – | 63 | – | – | – | – | 0.00 | 0.33 | 0.1 | 0.1 |
| 08/30 13:00 | – | 52 | – | 62 | – | – | – | – | 0.00 | 0.33 | 0.1 | 0.2 |
| 08/30 12:00 | – | 51 | – | 63 | – | – | – | – | 0.00 | 0.33 | 0.1 | 0.3 |
| 08/30 11:00 | – | 49 | – | 76 | – | – | – | – | 0.00 | 0.33 | 0.1 | -0.1 |
| 08/30 10:00 | – | 46 | – | 79 | – | – | – | – | 0.00 | 0.33 | 0.1 | -0.2 |
| 08/30 09:00 | – | 43 | – | 89 | – | – | – | – | 0.00 | 0.33 | 0.1 | -0.3 |
| 08/30 08:00 | – | 40 | – | 97 | – | – | – | – | 0.00 | 0.33 | 0.1 | 0.1 |
| 08/30 07:00 | – | 38 | – | 98 | – | – | – | – | 0.00 | 0.33 | 0.1 | -0.4 |
| 08/30 06:00 | – | 37 | – | 98 | – | – | – | – | 0.00 | 0.33 | 0.1 | -0.2 |
| 08/30 05:00 | – | 36 | – | 97 | – | – | – | – | 0.00 | 0.33 | 0.1 | 0.2 |
| 08/30 04:00 | – | 38 | – | 97 | – | – | – | – | 0.00 | 0.33 | 0.1 | 0.3 |
| 08/30 03:00 | – | 41 | – | 95 | – | – | – | – | 0.00 | 0.33 | 0.1 | 0.2 |
| 08/30 02:00 | – | 41 | – | 98 | – | – | – | – | 0.00 | 0.33 | 0.1 | -0.0 |
| 08/30 01:00 | – | 41 | – | 95 | – | – | – | – | 0.00 | 0.33 | 0.1 | 0.1 |
| 08/30 00:00 | – | 42 | – | 94 | – | – | – | – | 0.00 | 0.33 | 0.1 | 0.2 |
| 08/29 23:00 | – | 43 | – | 94 | – | – | – | – | 0.00 | 0.33 | 0.1 | -0.1 |
| 08/29 22:00 | – | 43 | – | 94 | – | – | – | – | 0.00 | 0.33 | 0.1 | -0.2 |
| 08/29 21:00 | – | 40 | – | 96 | – | – | – | – | 0.00 | 0.33 | 0.1 | -0.0 |
| 08/29 20:00 | – | 42 | – | 93 | – | – | – | – | 0.00 | 0.33 | 0.1 | 0.1 |
| 08/29 19:00 | – | 45 | – | 84 | – | – | – | – | 0.00 | 0.33 | 0.1 | -0.3 |
| 08/29 18:00 | – | 45 | – | 85 | – | – | – | – | 0.00 | 0.33 | 0.1 | -0.1 |
| 08/29 17:00 | – | 46 | – | 81 | – | – | – | – | 0.00 | 0.33 | 0.1 | -0.0 |
| 08/29 16:00 | – | 46 | – | 85 | – | – | – | – | 0.00 | 0.33 | 0.1 | 0.0 |
| 08/29 15:00 | – | 47 | – | 81 | – | – | – | – | 0.00 | 0.33 | 0.1 | 0.2 |
| 08/29 14:00 | – | 45 | – | 89 | – | – | – | – | 0.00 | 0.33 | 0.1 | 0.1 |
| 08/29 13:00 | – | 44 | – | 91 | – | – | – | – | 0.00 | 0.33 | 0.1 | 0.4 |
| 08/29 12:00 | – | 43 | – | 93 | – | – | – | – | 0.01 | 0.33 | 0.1 | 0.6 |
| 08/29 11:00 | – | 40 | – | 94 | – | – | – | – | 0.11 | 0.32 | 0.1 | 0.2 |
| 08/29 10:00 | – | 41 | – | 93 | – | – | – | – | 0.03 | 0.21 | 0.1 | 0.1 |
| 08/29 09:00 | – | 41 | – | 96 | – | – | – | – | 0.05 | 0.18 | 0.1 | 0.3 |
| 08/29 08:00 | – | 41 | – | 96 | – | – | – | – | 0.13 | 0.13 | 0.1 | 0.3 |
| 08/29 07:00 | – | 41 | – | 95 | – | – | – | – | 0.00 | 0.00 | 0.1 | -0.0 |
| 08/29 06:00 | – | 41 | – | 96 | – | – | – | – | 0.00 | 0.00 | 0.1 | 0.1 |
| 08/29 05:00 | – | 41 | – | 97 | – | – | – | – | 0.00 | 0.00 | 0.1 | 0.2 |
| 08/29 04:00 | – | 42 | – | 98 | – | – | – | – | 0.00 | 0.00 | 0.1 | -0.0 |
| 08/29 03:00 | – | 44 | – | 95 | – | – | – | – | 0.00 | 0.00 | 0.1 | -0.0 |
| 08/29 02:00 | – | 44 | – | 96 | – | – | – | – | 0.00 | 0.00 | 0.1 | 0.2 |
| 08/29 01:00 | – | 45 | – | 96 | – | – | – | – | 0.00 | 0.00 | 0.1 | 0.3 |
| 08/29 00:00 | – | 47 | – | 92 | – | – | – | – | 0.00 | 0.00 | 0.1 | 0.3 |
| 08/28 23:00 | – | 47 | – | 91 | – | – | – | – | 0.00 | 0.00 | 0.1 | 0.3 |
| 08/28 22:00 | – | 48 | – | 89 | – | – | – | – | 0.00 | 0.00 | 0.1 | 0.3 |
| 08/28 21:00 | – | 48 | – | 89 | – | – | – | – | 0.00 | 0.00 | 0.1 | 0.4 |
| 08/28 20:00 | – | 49 | – | 91 | – | – | – | – | 0.00 | 0.00 | 0.1 | 0.4 |
| 08/28 19:00 | – | 51 | – | 89 | – | – | – | – | 0.00 | 0.00 | 0.1 | 0.5 |
| 08/28 18:00 | – | 51 | – | 88 | – | – | – | – | 0.00 | 0.00 | 0.1 | 0.5 |
| 08/28 17:00 | – | 52 | – | 84 | – | – | – | – | 0.00 | 0.00 | 0.1 | 0.4 |
| 08/28 16:00 | – | 54 | – | 81 | – | – | – | – | 0.00 | 0.00 | 0.1 | 0.1 |
| 08/28 15:00 | – | 57 | – | 73 | – | – | – | – | 0.00 | 0.00 | 0.1 | -0.1 |
| 08/28 14:00 | – | 57 | – | 68 | – | – | – | – | 0.00 | 0.00 | 0.1 | 0.2 |
| 08/28 13:00 | – | 57 | – | 65 | – | – | – | – | 0.00 | 0.00 | 0.1 | 0.3 |
| 08/28 12:00 | – | 56 | – | 66 | – | – | – | – | 0.00 | 0.00 | 0.1 | 0.4 |
| 08/28 11:00 | – | 55 | – | 68 | – | – | – | – | 0.00 | 0.00 | 0.1 | 0.2 |
| 08/28 10:00 | – | 50 | – | 79 | – | – | – | – | 0.00 | 0.00 | 0.1 | -0.5 |
| 08/28 09:00 | – | 48 | – | 83 | – | – | – | – | 0.00 | 0.00 | 0.1 | 0.1 |
| 08/28 08:00 | – | 43 | – | 93 | – | – | – | – | 0.00 | 0.00 | 0.1 | 0.1 |
| 08/28 07:00 | – | 42 | – | 92 | – | – | – | – | 0.00 | 0.00 | 0.1 | 0.1 |
| 08/28 06:00 | – | 45 | – | 92 | – | – | – | – | 0.00 | 0.00 | 0.1 | 0.2 |
| 08/28 05:00 | – | 46 | – | 93 | – | – | – | – | 0.00 | 0.00 | 0.1 | 0.2 |
| 08/28 04:00 | – | 47 | – | 95 | – | – | – | – | 0.00 | 0.00 | 0.1 | 0.1 |
| 08/28 03:00 | – | 47 | – | 97 | – | – | – | – | 0.00 | 0.00 | 0.1 | 0.3 |
| 08/28 02:00 | – | 47 | – | 98 | – | – | – | – | 0.00 | 0.00 | 0.1 | 0.3 |
| 08/28 01:00 | – | 47 | – | 98 | – | – | – | – | 0.00 | 0.00 | 0.1 | 0.3 |
| 08/28 00:00 | – | 48 | – | 93 | – | – | – | – | 0.00 | 0.00 | 0.1 | 0.4 |
| 08/27 23:00 | – | 48 | – | 93 | – | – | – | – | 0.00 | 0.00 | 0.1 | 0.3 |
| 08/27 22:00 | – | 49 | – | 93 | – | – | – | – | 0.00 | 0.00 | 0.1 | 0.4 |
| 08/27 21:00 | – | 50 | – | 92 | – | – | – | – | 0.00 | 0.00 | 0.1 | 0.4 |
| 08/27 20:00 | – | 51 | – | 87 | – | – | – | – | 0.00 | 0.00 | 0.1 | 0.5 |
| 08/27 19:00 | – | 53 | – | 79 | – | – | – | – | 0.00 | 0.00 | 0.1 | 0.5 |
| 08/27 18:00 | – | 54 | – | 78 | – | – | – | – | 0.00 | 0.00 | 0.1 | 0.5 |
| 08/27 17:00 | – | 54 | – | 77 | – | – | – | – | 0.00 | 0.00 | 0.1 | 0.5 |
| 08/27 16:00 | – | 54 | – | 77 | – | – | – | – | 0.00 | 0.00 | 0.1 | 0.5 |
| 08/27 15:00 | – | 54 | – | 79 | – | – | – | – | 0.00 | 0.00 | 0.1 | 0.5 |
| 08/27 14:00 | – | 57 | – | 71 | – | – | – | – | 0.00 | 0.00 | 0.1 | 0.2 |
| 08/27 13:00 | – | 56 | – | 71 | – | – | – | – | 0.00 | 0.00 | 0.1 | 0.5 |
| 08/27 12:00 | – | 55 | – | 74 | – | – | – | – | 0.00 | 0.00 | 0.1 | 0.3 |
| 08/27 11:00 | – | 52 | – | 86 | – | – | – | – | 0.00 | 0.00 | 0.2 | 0.4 |
| 08/27 10:00 | – | 50 | – | 92 | – | – | – | – | 0.00 | 0.00 | 0.1 | 0.4 |
| 08/27 09:00 | – | 49 | – | 95 | – | – | – | – | 0.00 | 0.00 | 0.1 | 0.3 |
| 08/27 08:00 | – | 49 | – | 97 | – | – | – | – | 0.00 | 0.00 | 0.1 | 0.1 |
| 08/27 07:00 | – | 49 | – | 97 | – | – | – | – | 0.00 | 0.00 | 0.1 | 0.2 |
| 08/27 06:00 | – | 49 | – | 99 | – | – | – | – | 0.00 | 0.00 | 0.1 | 0.1 |
| 08/27 05:00 | – | 48 | – | 99 | – | – | – | – | 0.00 | 0.00 | 0.1 | 0.2 |
| 08/27 04:00 | – | 49 | – | 96 | – | – | – | – | 0.00 | 0.00 | 0.1 | 0.1 |
| 08/27 03:00 | – | 55 | – | 73 | – | – | – | – | 0.00 | 0.00 | 0.1 | 0.3 |
| 08/27 02:00 | – | 50 | – | 92 | – | – | – | – | 0.00 | 0.00 | 0.1 | 0.0 |
| 08/27 01:00 | – | 50 | – | 94 | – | – | – | – | 0.00 | 0.00 | 0.1 | 0.1 |
| 08/27 00:00 | – | 50 | – | 94 | – | – | – | – | 0.00 | 0.00 | 0.1 | 0.2 |
| 08/26 23:00 | – | 50 | – | 93 | – | – | – | – | 0.00 | 0.00 | 0.1 | -0.1 |
| 08/26 22:00 | – | 52 | – | 92 | – | – | – | – | 0.00 | 0.00 | 0.1 | 0.0 |
| 08/26 21:00 | – | 52 | – | 89 | – | – | – | – | 0.00 | 0.00 | 0.1 | -0.1 |
| 08/26 20:00 | – | 56 | – | 84 | – | – | – | – | 0.00 | 0.00 | 0.1 | -0.1 |
| 08/26 19:00 | – | 61 | – | 74 | – | – | – | – | 0.00 | 0.00 | 0.1 | 0.1 |
| 08/26 18:00 | – | 64 | – | 65 | – | – | – | – | 0.00 | 0.00 | 0.1 | 0.0 |
| 08/26 17:00 | – | 66 | – | 58 | – | – | – | – | 0.00 | 0.00 | 0.1 | 0.1 |
| 08/26 16:00 | – | 66 | – | 59 | – | – | – | – | 0.00 | 0.00 | 0.1 | 0.6 |
| 08/26 15:00 | – | 67 | – | 56 | – | – | – | – | 0.00 | 0.00 | 0.1 | 0.3 |
| 08/26 14:00 | – | 66 | – | 60 | – | – | – | – | 0.00 | 0.00 | 0.1 | 0.2 |
| 08/26 13:00 | – | 67 | – | 56 | – | – | – | – | 0.00 | 0.00 | 0.1 | 0.1 |
| 08/26 12:00 | – | 67 | – | 55 | – | – | – | – | 0.00 | 0.00 | 0.1 | 0.0 |
| 08/26 11:00 | – | 66 | – | 57 | – | – | – | – | 0.00 | 0.00 | 0.1 | -0.2 |
| 08/26 10:00 | – | 63 | – | 56 | – | – | – | – | 0.00 | 0.00 | -0.2 | -0.9 |
| 08/26 09:00 | – | 54 | – | 64 | – | – | – | – | 0.00 | 0.00 | -0.0 | -0.2 |
| 08/26 08:00 | – | 50 | – | 70 | – | – | – | – | 0.00 | 0.00 | 0.0 | -0.0 |
| 08/26 07:00 | – | 49 | – | 64 | – | – | – | – | 0.00 | 0.00 | 0.1 | 0.1 |
| 08/26 06:00 | – | 49 | – | 63 | – | – | – | – | 0.00 | 0.00 | 0.1 | 0.2 |
| 08/26 05:00 | – | 51 | – | 67 | – | – | – | – | 0.00 | 0.00 | 0.1 | 0.1 |
| 08/26 04:00 | – | 51 | – | 65 | – | – | – | – | 0.00 | 0.00 | 0.1 | 0.0 |
| 08/26 03:00 | – | 51 | – | 71 | – | – | – | – | 0.00 | 0.00 | 0.1 | 0.0 |
| 08/26 02:00 | – | 52 | – | 77 | – | – | – | – | 0.00 | 0.00 | 0.1 | 0.0 |
| 08/26 01:00 | – | 53 | – | 83 | – | – | – | – | 0.00 | 0.00 | 0.1 | 0.3 |
| 08/26 00:00 | – | 55 | – | 86 | – | – | – | – | 0.00 | 0.00 | 0.1 | 0.3 |
| 08/25 23:00 | – | 55 | – | 85 | – | – | – | – | 0.00 | 0.00 | 0.1 | 0.3 |
| 08/25 22:00 | – | 56 | – | 83 | – | – | – | – | 0.00 | 0.00 | 0.1 | 0.5 |
| 08/25 21:00 | – | 58 | – | 80 | – | – | – | – | 0.00 | 0.00 | 0.1 | 0.4 |
| 08/25 20:00 | – | 62 | – | 73 | – | – | – | – | 0.00 | 0.00 | 0.0 | 0.3 |
| 08/25 19:00 | – | 67 | – | 63 | – | – | – | – | 0.00 | 0.00 | 0.1 | 0.4 |
| 08/25 18:00 | – | 71 | – | 54 | – | – | – | – | 0.00 | 0.00 | 0.1 | -0.1 |
| 08/25 17:00 | – | 73 | – | 47 | – | – | – | – | 0.00 | 0.00 | 0.1 | 0.1 |
| 08/25 16:00 | – | 74 | – | 42 | – | – | – | – | 0.00 | 0.00 | 0.1 | 0.1 |
| 08/25 15:00 | – | 75 | – | 37 | – | – | – | – | 0.00 | 0.00 | 0.1 | -0.1 |
| 08/25 14:00 | – | 82 | – | 22 | – | – | – | – | 0.00 | 0.00 | 0.0 | -0.0 |
| 08/25 13:00 | – | 79 | – | 22 | – | – | – | – | 0.00 | 0.00 | 0.1 | 0.2 |
| 08/25 12:00 | – | 75 | – | 31 | – | – | – | – | 0.00 | 0.00 | 0.0 | -0.4 |
| 08/25 11:00 | – | 71 | – | 41 | – | – | – | – | 0.00 | 0.00 | -0.3 | -0.5 |
| 08/25 10:00 | – | 66 | – | 50 | – | – | – | – | 0.00 | 0.00 | -0.3 | -0.6 |
| 08/25 09:00 | – | 57 | – | 64 | – | – | – | – | 0.00 | 0.00 | 0.0 | 0.3 |
| 08/25 08:00 | – | 55 | – | 65 | – | – | – | – | 0.00 | 0.00 | 0.1 | 0.6 |
| 08/25 07:00 | – | 52 | – | 67 | – | – | – | – | 0.00 | 0.00 | 0.1 | 0.6 |
| 08/25 06:00 | – | 51 | – | 66 | – | – | – | – | 0.00 | 0.00 | 0.1 | 0.4 |
| 08/25 05:00 | – | 52 | – | 63 | – | – | – | – | 0.00 | 0.00 | 0.1 | 0.7 |
| 08/25 04:00 | – | 52 | – | 64 | – | – | – | – | 0.00 | 0.00 | 0.1 | 0.7 |
| 08/25 03:00 | – | 52 | – | 63 | – | – | – | – | 0.00 | 0.00 | 0.1 | 0.5 |
| 08/25 02:00 | – | 52 | – | 65 | – | – | – | – | 0.00 | 0.00 | 0.1 | 0.4 |
| 08/25 01:00 | – | 52 | – | 65 | – | – | – | – | 0.00 | 0.00 | 0.1 | 0.4 |
| 08/25 00:00 | – | 53 | – | 69 | – | – | – | – | 0.00 | 0.00 | 0.1 | 0.2 |
| 08/24 23:00 | – | 55 | – | 66 | – | – | – | – | 0.00 | 0.00 | 0.1 | 0.0 |
| 08/24 22:00 | – | 55 | – | 68 | – | – | – | – | 0.00 | 0.00 | 0.1 | 0.3 |
| 08/24 21:00 | – | 57 | – | 66 | – | – | – | – | 0.00 | 0.00 | 0.1 | 0.2 |
| 08/24 20:00 | – | 59 | – | 65 | – | – | – | – | 0.00 | 0.00 | 0.1 | 0.1 |

